createdAt,value
2024-03-13T00:00:44.156Z,6.05
2024-03-13T00:03:11.081Z,11.18
2024-03-13T00:05:38.066Z,7.18
2024-03-13T00:08:07.042Z,7.53
2024-03-13T00:10:33.857Z,6.88
2024-03-13T00:13:00.734Z,6.85
2024-03-13T00:15:27.529Z,6.30
2024-03-13T00:17:54.481Z,6.78
2024-03-13T00:20:21.616Z,6.65
2024-03-13T00:22:49.449Z,6.25
2024-03-13T00:25:16.675Z,6.20
2024-03-13T00:27:47.208Z,6.53
2024-03-13T00:30:14.779Z,6.13
2024-03-13T00:32:42.500Z,5.75
2024-03-13T00:35:09.813Z,5.82
2024-03-13T00:37:36.538Z,5.50
2024-03-13T00:40:05.192Z,4.70
2024-03-13T00:42:32.119Z,4.43
2024-03-13T00:44:59.089Z,3.47
2024-03-13T00:47:25.892Z,3.13
2024-03-13T00:49:55.607Z,4.35
2024-03-13T00:52:23.631Z,4.82
2024-03-13T00:54:52.258Z,3.50
2024-03-13T00:57:20.304Z,3.40
2024-03-13T00:59:47.858Z,3.08
2024-03-13T01:02:14.977Z,3.25
2024-03-13T01:04:44.422Z,3.15
2024-03-13T01:07:11.649Z,2.83
2024-03-13T01:09:39.900Z,2.70
2024-03-13T01:12:08.242Z,2.28
2024-03-13T01:14:35.436Z,2.55
2024-03-13T01:17:04.325Z,2.65
2024-03-13T01:19:35.745Z,2.42
2024-03-13T01:22:14.453Z,2.42
2024-03-13T01:24:44.185Z,2.65
2024-03-13T01:27:11.861Z,2.30
2024-03-13T01:29:41.539Z,2.40
2024-03-13T01:32:09.172Z,2.78
2024-03-13T01:34:35.969Z,2.70
2024-03-13T01:37:21.247Z,2.63
2024-03-13T01:39:49.255Z,2.30
2024-03-13T01:42:34.644Z,2.35
2024-03-13T01:45:25.867Z,2.45
2024-03-13T01:48:12.225Z,2.20
2024-03-13T01:50:59.546Z,1.90
2024-03-13T01:53:45.434Z,2.10
2024-03-13T01:56:22.957Z,1.80
2024-03-13T01:59:04.638Z,2.15
2024-03-13T02:01:50.553Z,1.53
2024-03-13T02:04:18.075Z,1.70
2024-03-13T02:06:47.348Z,1.58
2024-03-13T02:09:14.903Z,1.75
2024-03-13T02:11:43.051Z,1.02
2024-03-13T02:14:09.988Z,0.82
2024-03-13T02:16:36.798Z,0.70
2024-03-13T02:19:04.144Z,0.65
2024-03-13T02:21:34.316Z,0.57
2024-03-13T02:24:01.254Z,0.70
2024-03-13T02:26:28.176Z,0.75
2024-03-13T02:28:54.966Z,0.80
2024-03-13T02:31:21.901Z,0.70
2024-03-13T02:33:48.783Z,0.60
2024-03-13T02:36:16.092Z,0.80
2024-03-13T02:38:43.010Z,0.80
2024-03-13T02:41:09.815Z,0.80
2024-03-13T02:43:39.660Z,0.70
2024-03-13T02:46:06.411Z,0.93
2024-03-13T02:48:33.200Z,0.80
2024-03-13T02:50:59.949Z,0.55
2024-03-13T02:53:27.213Z,0.90
2024-03-13T02:55:55.333Z,0.70
2024-03-13T02:58:23.355Z,0.70
2024-03-13T03:00:50.432Z,0.60
2024-03-13T03:03:18.018Z,0.70
2024-03-13T03:05:47.154Z,0.63
2024-03-13T03:08:16.297Z,0.63
2024-03-13T03:10:43.163Z,0.60
2024-03-13T03:13:11.752Z,0.68
2024-03-13T03:15:40.485Z,0.65
2024-03-13T03:18:07.955Z,0.80
2024-03-13T03:20:34.818Z,0.75
2024-03-13T03:23:01.693Z,0.80
2024-03-13T03:25:30.554Z,1.90
2024-03-13T03:28:00.616Z,1.73
2024-03-13T03:30:27.498Z,0.50
2024-03-13T03:32:55.112Z,0.70
2024-03-13T03:35:21.899Z,0.50
2024-03-13T03:37:48.754Z,0.70
2024-03-13T03:40:17.448Z,0.70
2024-03-13T03:42:44.361Z,0.70
2024-03-13T03:45:13.127Z,0.50
2024-03-13T03:47:40.931Z,0.60
2024-03-13T03:50:08.477Z,0.60
2024-03-13T03:52:35.877Z,0.70
2024-03-13T03:55:04.376Z,0.80
2024-03-13T03:57:31.204Z,0.70
2024-03-13T03:59:57.995Z,0.80
2024-03-13T04:02:24.713Z,0.70
2024-03-13T04:04:51.463Z,0.85
2024-03-13T04:07:18.167Z,0.70
2024-03-13T04:09:44.945Z,0.88
2024-03-13T04:12:11.785Z,0.70
2024-03-13T04:14:38.578Z,0.90
2024-03-13T04:17:05.341Z,0.80
2024-03-13T04:19:32.323Z,0.60
2024-03-13T04:22:00.133Z,0.50
2024-03-13T04:24:27.039Z,0.75
2024-03-13T04:26:53.871Z,0.80
2024-03-13T04:29:24.680Z,0.65
2024-03-13T04:31:53.522Z,0.80
2024-03-13T04:34:20.285Z,0.73
2024-03-13T04:36:48.469Z,0.60
2024-03-13T04:39:17.099Z,0.77
2024-03-13T04:41:43.980Z,0.82
2024-03-13T04:44:11.113Z,0.80
2024-03-13T04:46:39.884Z,0.90
2024-03-13T04:49:06.815Z,0.70
2024-03-13T04:51:33.720Z,0.70
2024-03-13T04:54:00.430Z,0.70
2024-03-13T04:56:27.207Z,0.80
2024-03-13T04:58:53.951Z,0.90
2024-03-13T05:01:20.891Z,1.00
2024-03-13T05:03:48.085Z,3.08
2024-03-13T05:06:15.098Z,1.25
2024-03-13T05:08:42.101Z,5.22
2024-03-13T05:11:10.589Z,2.45
2024-03-13T05:13:37.688Z,3.22
2024-03-13T05:16:05.493Z,2.20
2024-03-13T05:18:32.260Z,3.08
2024-03-13T05:21:00.086Z,3.80
2024-03-13T05:23:26.842Z,3.42
2024-03-13T05:25:53.739Z,3.80
2024-03-13T05:28:22.922Z,3.80
2024-03-13T05:30:49.922Z,4.30
2024-03-13T05:33:16.686Z,3.13
2024-03-13T05:35:43.722Z,3.80
2024-03-13T05:38:12.048Z,5.20
2024-03-13T05:40:39.000Z,3.92
2024-03-13T05:43:05.923Z,4.10
2024-03-13T05:45:35.822Z,3.70
2024-03-13T05:48:03.467Z,4.28
2024-03-13T05:50:30.322Z,3.42
2024-03-13T05:52:57.092Z,3.97
2024-03-13T05:55:25.616Z,4.57
2024-03-13T05:57:52.615Z,3.47
2024-03-13T06:00:20.961Z,3.60
2024-03-13T06:02:47.918Z,4.32
2024-03-13T06:05:16.149Z,4.75
2024-03-13T06:07:43.164Z,9.68
2024-03-13T06:10:13.027Z,9.38
2024-03-13T06:12:40.091Z,5.80
2024-03-13T06:15:13.960Z,5.60
2024-03-13T06:17:41.702Z,5.45
2024-03-13T06:20:15.106Z,6.35
2024-03-13T06:22:42.539Z,6.53
2024-03-13T06:25:10.085Z,5.00
2024-03-13T06:27:37.627Z,4.53
2024-03-13T06:30:04.911Z,4.32
2024-03-13T06:32:31.918Z,4.25
2024-03-13T06:34:59.289Z,4.22
2024-03-13T06:37:26.555Z,4.93
2024-03-13T06:39:54.793Z,4.50
2024-03-13T06:42:21.835Z,4.43
2024-03-13T06:44:53.781Z,5.20
2024-03-13T06:47:21.911Z,4.75
2024-03-13T06:49:48.788Z,3.50
2024-03-13T06:52:15.836Z,3.70
2024-03-13T06:54:43.511Z,3.97
2024-03-13T06:57:16.194Z,3.83
2024-03-13T06:59:46.319Z,3.28
2024-03-13T07:02:15.293Z,4.30
2024-03-13T07:04:43.683Z,3.78
2024-03-13T07:07:11.927Z,3.55
2024-03-13T07:09:38.784Z,3.75
2024-03-13T07:12:05.982Z,3.97
2024-03-13T07:14:32.808Z,3.88
2024-03-13T07:17:00.018Z,3.67
2024-03-13T07:19:26.882Z,3.88
2024-03-13T07:21:54.127Z,3.80
2024-03-13T07:24:21.149Z,3.70
2024-03-13T07:26:47.926Z,3.65
2024-03-13T07:29:14.637Z,4.00
2024-03-13T07:31:41.552Z,4.43
2024-03-13T07:34:11.806Z,3.60
2024-03-13T07:36:39.863Z,2.97
2024-03-13T07:39:12.454Z,3.42
2024-03-13T07:41:41.236Z,3.28
2024-03-13T07:44:09.034Z,3.15
2024-03-13T07:46:36.441Z,3.30
2024-03-13T07:49:04.124Z,3.35
2024-03-13T07:51:31.204Z,3.05
2024-03-13T07:53:58.145Z,3.05
2024-03-13T07:56:25.390Z,2.55
2024-03-13T07:58:52.671Z,2.25
2024-03-13T08:01:20.179Z,3.17
2024-03-13T08:03:47.251Z,2.80
2024-03-13T09:06:39.659Z,1.30
2024-03-13T09:09:07.345Z,1.45
2024-03-13T09:11:38.252Z,1.45
2024-03-13T09:14:06.641Z,1.30
2024-03-13T09:16:33.438Z,1.80
2024-03-13T09:19:00.789Z,2.20
2024-03-13T09:21:27.733Z,2.28
2024-03-13T09:23:54.681Z,1.88
2024-03-13T09:26:21.442Z,1.70
2024-03-13T09:28:48.259Z,1.67
2024-03-13T09:31:15.646Z,1.80
2024-03-13T09:33:42.609Z,1.63
2024-03-13T09:36:14.709Z,1.45
2024-03-13T09:38:45.678Z,1.60
2024-03-13T09:41:14.952Z,1.60
2024-03-13T09:43:42.091Z,1.58
2024-03-13T09:46:14.997Z,1.60
2024-03-13T09:48:44.382Z,1.70
2024-03-13T09:51:12.048Z,1.83
2024-03-13T09:53:42.774Z,1.85
2024-03-13T09:56:15.680Z,1.67
2024-03-13T09:58:46.374Z,1.67
2024-03-13T10:01:21.621Z,1.52
2024-03-13T10:03:58.812Z,1.50
2024-03-13T10:06:27.310Z,1.77
2024-03-13T10:08:57.907Z,1.70
2024-03-13T10:11:25.103Z,1.92
2024-03-13T10:13:53.486Z,2.85
2024-03-13T10:16:24.026Z,2.15
2024-03-13T10:18:52.712Z,1.88
2024-03-13T10:21:29.023Z,2.40
2024-03-13T10:24:00.691Z,3.08
2024-03-13T10:26:28.746Z,2.40
2024-03-13T10:28:56.094Z,1.98
2024-03-13T10:31:25.397Z,1.67
2024-03-13T10:33:56.125Z,2.58
2024-03-13T10:36:23.204Z,2.17
2024-03-13T10:38:50.420Z,2.30
2024-03-13T10:41:18.991Z,1.60
2024-03-13T10:43:47.842Z,1.75
2024-03-13T10:46:14.811Z,1.60
2024-03-13T10:48:43.436Z,1.60
2024-03-13T10:51:15.002Z,1.70
2024-03-13T10:53:44.438Z,1.33
2024-03-13T10:56:16.033Z,1.35
2024-03-13T10:58:47.893Z,1.38
2024-03-13T11:01:17.895Z,2.40
2024-03-13T11:03:45.274Z,1.80
2024-03-13T11:06:16.788Z,1.70
2024-03-13T11:08:44.015Z,1.85
2024-03-13T11:11:20.784Z,1.88
2024-03-13T11:13:55.862Z,1.70
2024-03-13T11:16:24.848Z,1.52
2024-03-13T11:18:52.556Z,1.40
2024-03-13T11:21:40.787Z,0.93
2024-03-13T11:24:09.134Z,1.23
2024-03-13T11:26:39.382Z,1.38
2024-03-13T11:29:10.235Z,2.00
2024-03-13T11:31:37.422Z,1.30
2024-03-13T11:34:04.310Z,1.27
2024-03-13T11:36:31.459Z,1.50
2024-03-13T11:38:59.079Z,0.80
2024-03-13T11:41:26.578Z,0.90
2024-03-13T11:43:54.797Z,1.10
2024-03-13T11:46:34.932Z,0.90
2024-03-13T11:49:03.715Z,1.10
2024-03-13T11:51:32.447Z,1.90
2024-03-13T11:54:09.000Z,0.95
2024-03-13T11:56:36.036Z,2.10
2024-03-13T11:59:02.809Z,1.20
2024-03-13T12:01:31.945Z,1.00
2024-03-13T12:03:59.589Z,0.60
2024-03-13T12:06:26.406Z,1.17
2024-03-13T12:08:57.044Z,1.00
2024-03-13T12:11:27.377Z,0.95
2024-03-13T12:13:55.646Z,0.88
2024-03-13T12:16:22.591Z,1.15
2024-03-13T12:18:55.461Z,1.10
2024-03-13T12:21:27.232Z,1.00
2024-03-13T12:23:56.617Z,0.80
2024-03-13T12:26:25.804Z,0.98
2024-03-13T12:28:55.750Z,1.10
2024-03-13T12:31:22.626Z,1.60
2024-03-13T12:33:55.365Z,1.50
2024-03-13T12:36:22.424Z,1.20
2024-03-13T12:38:49.404Z,1.80
2024-03-13T12:41:16.651Z,1.65
2024-03-13T12:43:46.258Z,1.00
2024-03-13T12:46:17.321Z,1.00
2024-03-13T12:48:45.114Z,1.00
2024-03-13T12:51:12.479Z,1.25
2024-03-13T12:53:39.414Z,1.13
2024-03-13T12:56:12.016Z,1.27
2024-03-13T12:58:38.786Z,1.60
2024-03-13T13:01:06.580Z,1.23
2024-03-13T13:03:33.615Z,0.85
2024-03-13T13:06:01.534Z,1.50
2024-03-13T13:08:29.869Z,1.10
2024-03-13T13:10:58.271Z,1.08
2024-03-13T13:13:27.502Z,1.10
2024-03-13T13:15:54.423Z,0.93
2024-03-13T13:18:21.443Z,1.20
2024-03-13T13:20:48.312Z,1.50
2024-03-13T13:23:15.145Z,1.50
2024-03-13T13:25:42.090Z,1.50
2024-03-13T13:28:13.472Z,1.45
2024-03-13T13:30:45.557Z,1.37
2024-03-13T13:33:12.575Z,1.00
2024-03-13T13:35:43.997Z,1.20
2024-03-13T13:38:13.339Z,1.15
2024-03-13T13:40:40.512Z,0.93
2024-03-13T13:43:10.547Z,1.40
2024-03-13T13:45:37.944Z,0.93
2024-03-13T13:48:11.138Z,1.60
2024-03-13T13:50:38.409Z,1.30
2024-03-13T13:53:06.771Z,1.60
2024-03-13T13:55:33.511Z,1.58
2024-03-13T13:58:00.497Z,2.40
2024-03-13T14:00:27.789Z,1.55
2024-03-13T14:02:55.938Z,1.48
2024-03-13T14:05:23.664Z,1.80
2024-03-13T14:07:53.041Z,1.80
2024-03-13T14:10:20.348Z,1.23
2024-03-13T14:12:49.308Z,1.15
2024-03-13T14:15:20.068Z,1.30
2024-03-13T14:17:48.069Z,1.23
2024-03-13T14:20:20.220Z,1.63
2024-03-13T14:25:16.880Z,1.80
2024-03-13T14:27:43.854Z,1.65
2024-03-13T14:30:11.067Z,1.60
2024-03-13T14:32:38.340Z,1.77
2024-03-13T14:35:08.560Z,1.70
2024-03-13T14:37:37.230Z,1.63
2024-03-13T14:40:05.192Z,1.60
2024-03-13T14:42:36.185Z,1.42
2024-03-13T14:45:08.102Z,1.80
2024-03-13T14:47:35.271Z,1.85
2024-03-13T14:50:02.238Z,2.15
2024-03-13T14:52:29.309Z,1.60
2024-03-13T14:54:56.100Z,1.33
2024-03-13T14:57:29.022Z,1.30
2024-03-13T15:00:00.833Z,1.20
2024-03-13T15:02:29.923Z,1.23
2024-03-13T15:04:56.808Z,1.30
2024-03-13T15:07:23.628Z,1.17
2024-03-13T15:09:50.737Z,1.10
2024-03-13T15:12:17.712Z,1.13
2024-03-13T15:14:45.303Z,1.00
2024-03-13T15:17:14.702Z,1.25
2024-03-13T15:19:44.677Z,1.40
2024-03-13T15:22:13.292Z,2.47
2024-03-13T15:24:40.574Z,1.90
2024-03-13T15:27:08.614Z,2.38
2024-03-13T15:29:35.897Z,2.80
2024-03-13T15:32:02.766Z,2.83
2024-03-13T15:34:32.072Z,1.88
2024-03-13T15:36:59.312Z,1.50
2024-03-13T15:39:28.244Z,1.52
2024-03-13T15:41:55.716Z,1.40
2024-03-13T15:44:23.310Z,1.75
2024-03-13T15:46:50.454Z,1.73
2024-03-13T15:49:17.539Z,1.45
2024-03-13T15:51:44.362Z,1.42
2024-03-13T15:54:12.421Z,1.52
2024-03-13T15:56:39.596Z,1.35
2024-03-13T15:59:06.481Z,1.50
2024-03-13T16:01:34.604Z,2.08
2024-03-13T16:04:01.739Z,1.98
2024-03-13T16:06:30.102Z,1.50
2024-03-13T16:09:01.833Z,1.75
2024-03-13T16:11:30.374Z,1.95
2024-03-13T16:13:58.361Z,2.13
2024-03-13T16:16:31.244Z,1.95
2024-03-13T16:18:58.560Z,2.40
2024-03-13T16:21:28.815Z,2.20
2024-03-13T16:23:56.188Z,2.00
2024-03-13T16:26:25.029Z,1.75
2024-03-13T16:28:55.520Z,1.77
2024-03-13T16:31:25.197Z,2.05
2024-03-13T16:33:53.804Z,2.03
2024-03-13T16:36:21.162Z,1.70
2024-03-13T16:38:48.337Z,2.40
2024-03-13T16:41:15.599Z,2.20
2024-03-13T16:43:42.515Z,2.10
2024-03-13T16:46:10.621Z,2.60
2024-03-13T16:48:38.250Z,2.50
2024-03-13T16:51:08.320Z,1.77
2024-03-13T16:53:35.371Z,1.80
2024-03-13T16:56:02.686Z,2.10
2024-03-13T16:58:30.551Z,1.80
2024-03-13T17:00:57.678Z,1.95
2024-03-13T17:03:24.642Z,2.15
2024-03-13T17:05:52.536Z,2.53
2024-03-13T17:08:19.461Z,2.15
2024-03-13T17:10:49.869Z,2.22
2024-03-13T17:13:17.455Z,1.92
2024-03-13T17:15:45.163Z,1.58
2024-03-13T17:18:12.475Z,1.98
2024-03-13T17:20:41.019Z,1.83
2024-03-13T17:23:09.150Z,1.70
2024-03-13T17:25:35.896Z,2.05
2024-03-13T17:28:03.399Z,2.03
2024-03-13T17:30:30.699Z,1.70
2024-03-13T17:32:57.631Z,2.20
2024-03-13T17:35:24.685Z,2.30
2024-03-13T17:37:52.403Z,2.63
2024-03-13T17:40:21.473Z,2.40
2024-03-13T17:42:48.530Z,2.33
2024-03-13T17:45:18.228Z,2.58
2024-03-13T17:47:45.829Z,2.83
2024-03-13T17:50:13.236Z,3.00
2024-03-13T17:52:40.264Z,2.97
2024-03-13T17:55:07.627Z,4.40
2024-03-13T17:57:34.927Z,6.82
2024-03-13T18:00:02.860Z,5.70
2024-03-13T18:02:36.313Z,6.55
2024-03-13T18:05:03.636Z,6.55
2024-03-13T18:07:30.516Z,6.18
2024-03-13T18:09:57.436Z,5.50
2024-03-13T18:12:24.782Z,5.68
2024-03-13T18:14:54.251Z,5.18
2024-03-13T18:17:23.310Z,5.35
2024-03-13T18:19:50.356Z,4.65
2024-03-13T18:22:19.602Z,5.28
2024-03-13T18:24:46.633Z,4.05
2024-03-13T18:27:13.653Z,3.72
2024-03-13T18:29:40.560Z,3.90
2024-03-13T18:32:07.390Z,3.92
2024-03-13T18:34:34.416Z,4.60
2024-03-13T18:37:01.356Z,4.60
2024-03-13T18:39:28.267Z,5.63
2024-03-13T18:41:55.583Z,7.53
2024-03-13T18:44:26.579Z,9.10
2024-03-13T18:46:53.383Z,7.10
2024-03-13T18:49:20.542Z,8.75
2024-03-13T18:51:48.621Z,9.10
2024-03-13T18:54:16.040Z,9.90
2024-03-13T18:56:43.229Z,10.07
2024-03-13T18:59:11.670Z,18.63
2024-03-13T19:01:38.999Z,10.25
2024-03-13T19:04:06.039Z,10.68
2024-03-13T19:06:34.454Z,12.77
2024-03-13T19:09:01.833Z,8.63
2024-03-13T19:11:28.807Z,12.73
2024-03-13T19:13:55.727Z,7.65
2024-03-13T19:16:22.530Z,7.65
2024-03-13T19:18:53.270Z,7.28
2024-03-13T19:21:20.937Z,6.95
2024-03-13T19:23:52.699Z,7.13
2024-03-13T19:26:19.900Z,17.13
2024-03-13T19:28:46.724Z,18.25
2024-03-13T19:31:18.104Z,16.10
2024-03-13T19:33:51.089Z,6.47
2024-03-13T19:36:20.814Z,5.55
2024-03-13T19:38:47.618Z,5.97
2024-03-13T19:41:14.434Z,5.78
2024-03-13T19:43:42.119Z,5.75
2024-03-13T19:46:09.717Z,5.50
2024-03-13T19:48:36.833Z,4.95
2024-03-13T19:51:04.398Z,5.30
2024-03-13T19:53:31.382Z,5.65
2024-03-13T19:55:58.762Z,5.10
2024-03-13T19:58:25.646Z,5.55
2024-03-13T20:00:52.441Z,6.60
2024-03-13T20:03:19.297Z,7.70
2024-03-13T20:05:46.681Z,7.65
2024-03-13T20:08:14.724Z,9.00
2024-03-13T20:10:41.554Z,9.18
2024-03-13T20:13:08.759Z,10.23
2024-03-13T20:15:35.884Z,10.93
2024-03-13T20:18:02.890Z,9.98
2024-03-13T20:20:32.202Z,11.90
2024-03-13T20:23:01.780Z,11.20
2024-03-13T20:25:30.360Z,9.98
2024-03-13T20:27:57.891Z,11.27
2024-03-13T20:30:24.728Z,10.68
2024-03-13T20:32:51.748Z,10.52
2024-03-13T20:35:19.127Z,10.02
2024-03-13T20:37:45.925Z,9.85
2024-03-13T20:40:15.635Z,8.88
2024-03-13T20:42:43.318Z,7.70
2024-03-13T20:45:10.605Z,7.13
2024-03-13T20:47:38.368Z,6.88
2024-03-13T20:50:08.159Z,6.88
2024-03-13T20:52:39.060Z,6.15
2024-03-13T20:55:09.573Z,5.43
2024-03-13T20:57:39.728Z,5.43
2024-03-13T21:00:18.749Z,5.43
2024-03-13T21:02:46.043Z,7.05
2024-03-13T21:05:12.950Z,4.82
2024-03-13T21:07:39.854Z,5.03
2024-03-13T21:10:08.011Z,5.10
2024-03-13T21:12:34.792Z,5.15
2024-03-13T21:15:01.626Z,5.15
2024-03-13T21:17:31.524Z,5.38
2024-03-13T21:19:58.400Z,5.18
2024-03-13T21:22:27.192Z,4.90
2024-03-13T21:24:54.716Z,4.93
2024-03-13T21:27:21.828Z,4.85
2024-03-13T21:29:48.595Z,4.15
2024-03-13T21:32:15.748Z,4.00
2024-03-13T21:34:42.561Z,4.50
2024-03-13T21:37:09.326Z,4.07
2024-03-13T21:39:36.180Z,4.07
2024-03-13T21:42:03.002Z,3.90
2024-03-13T21:44:30.721Z,4.57
2024-03-13T21:46:57.470Z,4.07
2024-03-13T21:49:24.266Z,3.95
2024-03-13T21:51:51.072Z,4.07
2024-03-13T21:54:17.909Z,4.38
2024-03-13T21:56:44.829Z,4.60
2024-03-13T21:59:11.634Z,4.03
2024-03-13T22:01:39.076Z,4.30
2024-03-13T22:04:07.607Z,4.15
2024-03-13T22:06:36.673Z,4.15
2024-03-13T22:09:04.796Z,4.45
2024-03-13T22:11:31.793Z,4.88
2024-03-13T22:13:58.675Z,4.65
2024-03-13T22:16:25.642Z,4.03
2024-03-13T22:18:52.473Z,4.82
2024-03-13T22:21:19.347Z,4.63
2024-03-13T22:23:46.673Z,5.10
2024-03-13T22:26:18.232Z,4.55
2024-03-13T22:28:45.352Z,4.43
2024-03-13T22:31:13.142Z,4.60
2024-03-13T22:33:40.057Z,4.40
2024-03-13T22:36:07.121Z,4.65
2024-03-13T22:38:33.921Z,4.07
2024-03-13T22:41:00.668Z,4.45
2024-03-13T22:43:27.469Z,4.25
2024-03-13T22:45:54.238Z,4.28
2024-03-13T22:48:21.123Z,5.03
2024-03-13T22:50:48.002Z,4.70
2024-03-13T22:53:14.823Z,4.60
2024-03-13T22:55:41.593Z,4.97
2024-03-13T22:58:09.955Z,5.50
2024-03-13T23:00:36.969Z,5.22
2024-03-13T23:03:04.352Z,5.80
2024-03-13T23:05:34.381Z,4.63
2024-03-13T23:08:01.436Z,6.45
2024-03-13T23:10:28.237Z,4.60
2024-03-13T23:12:54.983Z,5.32
2024-03-13T23:15:22.259Z,4.60
2024-03-13T23:17:51.390Z,4.40
2024-03-13T23:20:18.418Z,4.18
2024-03-13T23:22:45.503Z,4.50
2024-03-13T23:25:12.810Z,3.70
2024-03-13T23:27:39.876Z,3.80
2024-03-13T23:30:08.667Z,3.90
2024-03-13T23:32:36.069Z,4.88
2024-03-13T23:35:06.888Z,4.63
2024-03-13T23:37:35.491Z,15.50
2024-03-13T23:40:05.719Z,14.05
2024-03-13T23:42:45.186Z,6.75
2024-03-13T23:45:14.012Z,5.50
2024-03-13T23:47:42.047Z,5.45
2024-03-13T23:50:13.236Z,5.65
2024-03-13T23:52:41.019Z,4.05
2024-03-13T23:55:08.039Z,4.15
2024-03-13T23:57:35.159Z,4.07
